createdAt,value
2023-02-02T06:29:04.828Z,37.00
2023-02-02T06:31:35.442Z,37.00
2023-02-02T06:34:05.939Z,37.20
2023-02-02T06:36:35.321Z,36.40
2023-02-02T06:39:06.431Z,37.30
2023-02-02T06:41:36.226Z,37.10
2023-02-02T06:44:05.567Z,37.40
2023-02-02T06:46:35.005Z,37.30
2023-02-02T06:49:04.411Z,37.40
2023-02-02T06:51:34.207Z,36.90
2023-02-02T06:54:05.457Z,37.90
2023-02-02T06:56:34.791Z,37.60
2023-02-02T06:59:05.377Z,37.70
2023-02-02T07:01:34.956Z,37.40
2023-02-02T07:04:04.367Z,37.50
2023-02-02T07:06:34.297Z,37.90
2023-02-02T07:09:03.901Z,37.90
2023-02-02T07:11:41.664Z,38.20
2023-02-02T07:14:13.638Z,37.90
2023-02-02T07:16:43.037Z,38.30
2023-02-02T07:19:12.411Z,38.70
2023-02-02T07:21:41.814Z,38.40
2023-02-02T07:24:11.255Z,38.70
2023-02-02T07:26:40.803Z,38.60
2023-02-02T07:29:14.709Z,39.10
2023-02-02T07:31:44.289Z,38.70
2023-02-02T07:34:13.729Z,39.00
2023-02-02T07:36:43.377Z,38.80
2023-02-02T07:39:13.469Z,38.50
2023-02-02T07:41:45.237Z,39.10
2023-02-02T07:44:18.480Z,39.20
2023-02-02T07:46:50.400Z,39.10
2023-02-02T07:49:21.753Z,40.00
2023-02-02T07:51:51.166Z,40.00
2023-02-02T07:54:20.606Z,39.30
2023-02-02T07:56:49.958Z,39.00
2023-02-02T07:59:19.423Z,38.80
2023-02-02T08:01:49.212Z,39.30
2023-02-02T08:04:18.906Z,39.20
2023-02-02T08:06:48.629Z,38.90
2023-02-02T08:09:18.024Z,39.10
2023-02-02T08:11:47.413Z,39.50
2023-02-02T08:14:16.978Z,39.60
2023-02-02T08:16:46.393Z,39.50
2023-02-02T08:19:15.854Z,39.50
2023-02-02T08:21:45.238Z,39.90
2023-02-02T08:24:14.599Z,39.90
2023-02-02T08:26:44.005Z,40.20
2023-02-02T16:46:50.489Z,58.10
2023-02-02T16:49:21.350Z,57.80
2023-02-02T16:52:09.634Z,57.90
2023-02-02T16:54:39.372Z,57.70
2023-02-02T16:57:08.762Z,57.80
2023-02-02T16:59:39.532Z,57.90
2023-02-02T17:02:27.253Z,57.70
2023-02-02T17:05:02.080Z,57.50
2023-02-02T17:07:32.199Z,56.80
2023-02-02T17:10:19.702Z,56.50
2023-02-02T17:12:49.442Z,56.30
2023-02-02T17:15:18.839Z,56.20
2023-02-02T17:17:50.677Z,56.00
2023-02-02T17:20:20.387Z,55.10
2023-02-02T17:22:51.500Z,54.90
2023-02-02T17:25:31.478Z,55.30
2023-02-02T17:28:02.436Z,54.30
2023-02-02T17:30:33.155Z,54.30
2023-02-02T17:33:02.969Z,54.20
2023-02-02T17:35:47.231Z,54.20
2023-02-02T17:38:23.121Z,54.00
2023-02-02T17:40:53.174Z,53.50
2023-02-02T17:43:22.710Z,53.30
2023-02-02T17:45:52.445Z,53.10
2023-02-02T17:48:22.483Z,53.30
2023-02-02T17:50:51.944Z,53.30
2023-02-02T17:53:22.124Z,54.00
2023-02-02T17:55:53.450Z,53.80
2023-02-02T17:58:22.810Z,54.70
2023-02-02T18:00:55.349Z,54.90
2023-02-02T18:03:26.337Z,55.20
2023-02-02T18:05:55.796Z,55.00
2023-02-02T18:08:26.214Z,55.40
2023-02-02T18:10:56.832Z,55.70
2023-02-02T18:13:26.324Z,56.00
2023-02-02T18:15:57.503Z,56.40
2023-02-02T18:18:27.016Z,56.20
2023-02-02T18:20:56.813Z,56.40
2023-02-02T18:23:26.163Z,56.50
2023-02-02T18:25:55.745Z,56.90
2023-02-02T18:28:25.276Z,56.90
2023-02-02T18:30:54.712Z,56.40
2023-02-02T18:33:25.105Z,56.80
2023-02-02T18:35:54.440Z,56.80
2023-02-02T18:38:23.787Z,57.20
2023-02-02T18:40:59.347Z,57.00
2023-02-02T18:43:28.791Z,57.80
2023-02-02T18:46:06.123Z,57.80
2023-02-02T18:48:35.484Z,58.00
2023-02-02T18:51:08.573Z,57.90
2023-02-02T18:53:37.891Z,58.10
2023-02-02T18:56:11.265Z,57.90
2023-02-02T18:58:40.718Z,58.20
2023-02-02T19:01:10.299Z,58.30
2023-02-02T19:03:42.149Z,58.30
2023-02-02T19:06:30.035Z,58.20
2023-02-02T19:08:59.431Z,58.20
2023-02-02T19:11:39.518Z,58.00
2023-02-02T19:14:14.449Z,57.60
2023-02-02T19:16:44.294Z,57.90
2023-02-02T19:19:34.976Z,58.30
2023-02-02T19:22:15.826Z,58.40
2023-02-02T19:24:45.173Z,58.70
2023-02-02T19:27:33.994Z,58.70
2023-02-02T19:30:06.011Z,58.70
2023-02-02T19:32:36.410Z,59.40
2023-02-02T19:35:10.172Z,59.10
2023-02-02T19:37:44.864Z,59.20
2023-02-02T19:40:16.161Z,59.40
2023-02-02T19:42:50.226Z,59.40
2023-02-02T19:45:24.247Z,59.60
2023-02-02T19:47:54.116Z,59.70
2023-02-02T19:50:25.470Z,59.30
2023-02-02T19:52:56.138Z,59.30
2023-02-02T19:55:36.985Z,58.80
2023-02-02T19:58:16.049Z,58.80
2023-02-02T20:00:46.496Z,58.70
2023-02-02T20:03:23.104Z,58.50
2023-02-02T20:05:57.461Z,58.70
2023-02-02T20:08:26.885Z,58.80
2023-02-02T20:11:16.205Z,58.70
2023-02-02T20:13:48.136Z,59.00
2023-02-02T20:16:21.915Z,58.70
2023-02-02T20:18:59.432Z,58.30
2023-02-02T20:21:55.032Z,57.70
2023-02-02T20:24:29.499Z,58.20
2023-02-02T20:27:05.027Z,58.80
2023-02-02T20:29:42.970Z,58.80
2023-02-02T20:32:33.283Z,58.80
2023-02-02T20:35:02.999Z,58.70
2023-02-02T20:37:38.326Z,58.70
2023-02-02T20:40:27.799Z,58.60
2023-02-02T20:42:59.493Z,57.80
2023-02-02T20:45:28.945Z,57.80
2023-02-02T20:47:58.308Z,57.70
2023-02-02T20:50:27.952Z,56.90
2023-02-02T20:52:57.539Z,57.30
2023-02-02T20:55:26.967Z,56.70
2023-02-02T20:57:56.370Z,56.60
2023-02-02T21:00:28.835Z,56.80
2023-02-02T21:02:58.260Z,57.10
2023-02-02T21:05:27.687Z,57.60
2023-02-02T21:07:57.111Z,57.30
2023-02-02T21:10:28.019Z,56.90
2023-02-02T21:12:57.571Z,57.30
2023-02-02T21:15:28.034Z,57.60
2023-02-02T21:17:57.386Z,57.80
2023-02-02T21:20:27.045Z,57.30
2023-02-02T21:22:58.446Z,57.30
2023-02-02T21:25:27.835Z,57.00
2023-02-02T21:27:58.208Z,56.50
2023-02-02T21:30:28.331Z,56.50
2023-02-02T21:32:58.220Z,56.10
2023-02-02T21:35:28.460Z,55.70
2023-02-02T21:38:00.005Z,55.70
2023-02-02T21:40:31.583Z,55.40
2023-02-02T21:43:02.089Z,53.80
2023-02-02T21:45:37.246Z,53.80
2023-02-02T21:48:24.980Z,52.80
2023-02-02T21:50:54.691Z,53.70
2023-02-02T21:53:29.053Z,51.90
2023-02-02T21:56:02.679Z,51.80
2023-02-02T21:58:36.365Z,51.20
2023-02-02T22:01:25.833Z,51.80
2023-02-02T22:03:55.297Z,51.40
2023-02-02T22:06:29.889Z,50.60
2023-02-02T22:09:14.687Z,50.50
2023-02-02T22:11:50.132Z,49.80
2023-02-02T22:14:20.179Z,51.00
2023-02-02T22:16:59.948Z,50.40
2023-02-02T22:19:29.301Z,49.70
2023-02-02T22:22:10.416Z,49.70
2023-02-02T22:24:39.744Z,50.40
2023-02-02T22:27:28.050Z,49.50
2023-02-02T22:30:00.214Z,49.90
2023-02-02T22:32:29.707Z,48.30
2023-02-02T22:34:59.088Z,47.40
2023-02-02T22:37:28.434Z,47.20
2023-02-02T22:40:00.610Z,47.10
2023-02-02T22:42:30.563Z,46.30
2023-02-02T22:45:00.087Z,47.50
2023-02-02T22:47:29.512Z,47.10
2023-02-02T22:49:58.871Z,47.20
